Time;durP1;ratioP1;P1;durP2;ratioP2;P2;SDS_P1;SDS_P2;PMS_P1;PMS_P2;Temp;Humidity;BMP_temperature;BMP_pressure;BME280_temperature;BME280_humidity;BME280_pressure;Samples;Min_cycle;Max_cycle;Signal;HPM_P1;HPM_P2
2024/03/09 00:00:20;;;;;;;;;;;20.70;99.90;;;;;;4993647;28;20033;-42
2024/03/09 00:02:56;;;;;;;7.53;2.50;;;20.70;99.90;;;;;;4993063;28;19917;-43
2024/03/09 00:05:26;;;;;;;8.65;2.65;;;20.60;99.90;;;;;;4993465;28;20019;-42
2024/03/09 00:07:57;;;;;;;9.93;3.15;;;20.70;99.90;;;;;;4972401;28;20531;-42
2024/03/09 00:10:28;;;;;;;7.85;2.22;;;20.70;99.90;;;;;;4988890;28;20022;-42
2024/03/09 00:12:55;;;;;;;5.00;2.30;;;20.60;99.90;;;;;;4993346;28;20030;-42
2024/03/09 00:15:25;;;;;;;6.53;2.15;;;20.60;99.90;;;;;;4975179;28;20070;-41
2024/03/09 00:17:52;;;;;;;8.70;2.40;;;20.60;99.90;;;;;;4992961;28;20030;-41
2024/03/09 00:20:21;;;;;;;6.10;2.22;;;20.60;99.90;;;;;;4993322;28;20023;-42
2024/03/09 00:22:55;;;;;;;7.35;2.42;;;20.60;99.90;;;;;;4992989;28;20133;-41
2024/03/09 00:25:22;;;;;;;7.82;2.40;;;20.60;99.90;;;;;;4993357;28;20024;-41
2024/03/09 00:27:48;;;;;;;9.63;2.60;;;20.60;99.90;;;;;;4981030;28;20026;-41
2024/03/09 00:30:22;;;;;;;7.45;2.55;;;20.60;99.90;;;;;;4992849;28;20479;-41
2024/03/09 00:32:54;;;;;;;7.35;2.53;;;20.60;99.90;;;;;;4993325;28;20026;-41
2024/03/09 00:35:22;;;;;;;5.43;2.35;;;20.60;99.90;;;;;;4974896;28;20078;-41
2024/03/09 00:37:48;;;;;;;4.35;2.00;;;20.60;99.90;;;;;;4992802;28;20417;-42
2024/03/09 00:40:14;;;;;;;9.27;3.22;;;20.50;99.90;;;;;;4992835;28;20053;-42
2024/03/09 00:42:41;;;;;;;7.68;2.20;;;20.50;99.90;;;;;;4992767;28;20058;-42
2024/03/09 00:45:09;;;;;;;4.90;2.08;;;20.50;99.90;;;;;;4974641;28;20033;-42
2024/03/09 00:47:36;;;;;;;11.48;2.45;;;20.50;99.90;;;;;;4993009;28;20024;-42
2024/03/09 00:50:04;;;;;;;6.30;2.20;;;20.50;99.90;;;;;;4992823;28;20374;-43
2024/03/09 00:52:31;;;;;;;8.23;2.65;;;20.50;99.90;;;;;;4992559;28;20033;-42
2024/03/09 00:54:57;;;;;;;10.10;2.10;;;20.50;99.90;;;;;;4992530;28;20023;-42
2024/03/09 00:57:23;;;;;;;7.85;1.80;;;20.50;99.90;;;;;;4972318;28;20391;-43
2024/03/09 00:59:49;;;;;;;6.88;2.10;;;20.50;99.90;;;;;;4988798;28;20079;-41
2024/03/09 01:02:18;;;;;;;10.63;2.35;;;20.50;99.90;;;;;;5065607;23;20052;-59
2024/03/09 01:04:48;;;;;;;10.55;2.53;;;20.50;99.90;;;;;;5053739;28;20039;-60
2024/03/09 01:07:15;;;;;;;7.93;2.40;;;20.50;99.90;;;;;;5071685;28;20480;-59
2024/03/09 01:09:43;;;;;;;10.68;2.78;;;20.40;99.90;;;;;;5071779;28;20029;-59
2024/03/09 01:12:09;;;;;;;9.93;2.50;;;20.40;99.90;;;;;;5054107;28;20044;-58
2024/03/09 01:14:36;;;;;;;7.57;2.40;;;20.40;99.90;;;;;;5071116;28;20039;-59
2024/03/09 01:17:01;;;;;;;9.43;2.53;;;20.40;99.90;;;;;;5071701;28;20020;-59
2024/03/09 01:19:29;;;;;;;9.98;2.95;;;20.40;99.90;;;;;;5071938;28;20369;-59
2024/03/09 01:22:05;;;;;;;6.45;2.30;;;20.40;99.90;;;;;;5071307;28;20468;-61
2024/03/09 01:24:32;;;;;;;6.72;2.40;;;20.40;99.90;;;;;;5071893;28;20037;-62
2024/03/09 01:26:57;;;;;;;6.95;2.13;;;20.40;99.90;;;;;;5071658;28;20025;-59
2024/03/09 01:29:23;;;;;;;6.40;2.20;;;20.40;99.90;;;;;;5063454;28;20035;-59
2024/03/09 01:31:51;;;;;;;6.25;2.05;;;20.40;99.90;;;;;;5044965;28;20024;-60
2024/03/09 01:34:17;;;;;;;9.52;2.85;;;20.40;99.90;;;;;;5058699;28;20031;-60
2024/03/09 01:36:45;;;;;;;10.80;2.40;;;20.40;99.90;;;;;;5071027;28;20478;-58
2024/03/09 01:39:14;;;;;;;9.40;2.60;;;20.30;99.90;;;;;;5071751;28;20060;-59
2024/03/09 01:41:39;;;;;;;10.88;2.25;;;20.30;99.90;;;;;;5071605;28;20040;-59
2024/03/09 01:44:05;;;;;;;25.65;3.05;;;20.30;99.90;;;;;;5060599;28;20033;-61
2024/03/09 01:46:31;;;;;;;9.52;2.30;;;20.30;99.90;;;;;;5069093;28;20439;-60
2024/03/09 01:48:57;;;;;;;8.50;2.50;;;20.30;99.90;;;;;;5072006;28;20021;-60
2024/03/09 01:51:23;;;;;;;10.93;2.95;;;20.30;99.90;;;;;;5071512;28;20392;-60
2024/03/09 01:53:53;;;;;;;10.30;2.92;;;20.30;99.90;;;;;;5068543;28;20027;-60
2024/03/09 01:56:22;;;;;;;8.20;2.20;;;20.30;99.90;;;;;;5058866;28;20044;-60
2024/03/09 01:58:48;;;;;;;10.18;3.22;;;20.30;99.90;;;;;;5071427;28;20016;-60
2024/03/09 02:01:24;;;;;;;10.15;2.05;;;20.30;99.90;;;;;;5074488;23;20052;-41
2024/03/09 02:03:54;;;;;;;9.30;2.17;;;20.30;99.90;;;;;;5049385;28;20047;-42
2024/03/09 02:06:27;;;;;;;16.08;2.90;;;20.20;99.90;;;;;;5052783;28;20024;-41
2024/03/09 02:08:56;;;;;;;11.57;2.40;;;20.20;99.90;;;;;;5071486;28;20452;-41
2024/03/09 02:11:22;;;;;;;8.55;2.38;;;20.20;99.90;;;;;;5073620;28;20028;-42
2024/03/09 02:13:48;;;;;;;10.05;2.75;;;20.20;99.90;;;;;;5074798;28;20023;-41
2024/03/09 02:16:14;;;;;;;9.18;2.75;;;20.20;99.90;;;;;;5074131;28;20476;-42
2024/03/09 02:18:40;;;;;;;9.80;3.00;;;20.20;99.90;;;;;;5073310;28;20028;-42
2024/03/09 02:21:08;;;;;;;7.10;2.30;;;20.20;99.90;;;;;;5073811;28;20088;-42
2024/03/09 02:23:35;;;;;;;10.40;2.53;;;20.20;99.90;;;;;;5073556;28;20044;-42
2024/03/09 02:26:01;;;;;;;12.02;2.50;;;20.20;99.90;;;;;;5074806;28;20060;-43
2024/03/09 02:28:28;;;;;;;13.25;2.85;;;20.20;99.90;;;;;;5074012;28;20472;-43
2024/03/09 02:30:58;;;;;;;11.75;2.63;;;20.10;99.90;;;;;;5075197;28;20535;-43
2024/03/09 02:33:25;;;;;;;11.10;2.72;;;20.10;99.90;;;;;;5074277;28;20024;-42
2024/03/09 02:35:52;;;;;;;10.33;2.23;;;20.10;99.90;;;;;;5074314;28;20028;-42
2024/03/09 02:38:19;;;;;;;10.60;1.95;;;20.10;99.90;;;;;;5056509;28;20526;-44
2024/03/09 02:40:45;;;;;;;;;;;20.10;99.90;;;;;;5075069;28;20028;-43
2024/03/09 02:43:12;;;;;;;10.32;2.35;;;20.10;99.90;;;;;;5074557;28;20264;-42
2024/03/09 02:45:39;;;;;;;12.13;3.17;;;20.10;99.90;;;;;;5073639;28;20017;-42
2024/03/09 02:48:05;;;;;;;13.47;2.93;;;20.00;99.90;;;;;;5073652;28;20024;-42
2024/03/09 02:50:32;;;;;;;15.38;3.53;;;20.00;99.90;;;;;;5073594;28;20257;-42
2024/03/09 02:52:57;;;;;;;11.90;2.58;;;20.00;99.90;;;;;;5074735;28;20032;-42
2024/03/09 02:55:24;;;;;;;11.07;2.97;;;20.00;99.90;;;;;;5074593;28;20372;-41
2024/03/09 02:57:50;;;;;;;10.68;2.75;;;20.00;99.90;;;;;;5074513;28;20024;-41
2024/03/09 03:00:21;;;;;;;13.60;3.50;;;20.00;99.90;;;;;;5056386;28;20031;-42
2024/03/09 03:05:33;;;;;;;13.63;2.97;;;20.00;99.90;;;;;;5074397;28;20515;-42
2024/03/09 03:08:00;;;;;;;11.57;3.17;;;20.00;99.90;;;;;;5074378;28;20106;-42
2024/03/09 03:10:26;;;;;;;10.82;2.90;;;20.00;99.90;;;;;;5074549;28;20059;-42
2024/03/09 03:12:52;;;;;;;10.48;3.60;;;19.90;99.90;;;;;;5056181;28;20035;-43
2024/03/09 03:15:19;;;;;;;13.38;2.75;;;19.90;99.90;;;;;;5074044;28;20099;-42
2024/03/09 03:17:46;;;;;;;11.70;2.50;;;19.90;99.90;;;;;;5074051;28;20075;-42
2024/03/09 03:20:17;;;;;;;10.38;3.35;;;19.90;99.90;;;;;;5073918;28;20047;-43
2024/03/09 03:22:45;;;;;;;13.93;2.70;;;19.90;99.90;;;;;;5056630;28;20020;-42
2024/03/09 03:25:11;;;;;;;17.20;3.42;;;19.90;99.90;;;;;;5073921;28;20384;-42
2024/03/09 03:27:37;;;;;;;11.25;3.00;;;19.90;99.90;;;;;;5055914;28;20059;-43
2024/03/09 03:30:04;;;;;;;15.88;2.92;;;19.90;99.90;;;;;;5073833;28;20032;-43
2024/03/09 03:32:30;;;;;;;12.00;2.88;;;19.90;99.90;;;;;;5073714;28;20028;-42
2024/03/09 03:34:56;;;;;;;14.25;2.70;;;19.90;99.90;;;;;;5073841;28;20021;-43
2024/03/09 03:37:21;;;;;;;10.13;2.80;;;19.90;99.90;;;;;;5073475;28;20036;-42
2024/03/09 03:39:47;;;;;;;12.88;3.05;;;19.90;99.90;;;;;;5073509;28;20024;-43
2024/03/09 03:42:13;;;;;;;10.75;2.20;;;19.90;99.90;;;;;;5073532;28;20111;-43
2024/03/09 03:44:40;;;;;;;14.00;2.95;;;19.90;99.90;;;;;;5073385;28;20021;-42
2024/03/09 03:47:07;;;;;;;12.25;2.80;;;19.90;99.90;;;;;;5073461;28;20016;-42
2024/03/09 03:49:34;;;;;;;11.20;3.35;;;19.90;99.90;;;;;;5073274;28;20039;-42
2024/03/09 03:52:00;;;;;;;14.18;3.50;;;19.80;99.90;;;;;;5055543;28;20021;-43
2024/03/09 03:54:26;;;;;;;9.57;2.78;;;19.80;99.90;;;;;;5073297;28;20017;-42
2024/03/09 03:56:53;;;;;;;17.52;3.55;;;19.80;99.90;;;;;;5055252;28;20024;-42
2024/03/09 03:59:20;;;;;;;13.80;2.70;;;19.80;99.90;;;;;;5055390;28;20380;-44
2024/03/09 04:01:45;;;;;;;10.13;3.00;;;19.80;99.90;;;;;;5055719;28;20040;-44
2024/03/09 04:04:11;;;;;;;12.80;2.95;;;19.80;99.90;;;;;;5055009;28;20035;-43
2024/03/09 04:06:44;;;;;;;9.68;2.78;;;19.80;99.90;;;;;;5072802;28;20100;-43
2024/03/09 04:09:13;;;;;;;9.25;2.45;;;19.80;99.90;;;;;;5072969;28;20048;-43
2024/03/09 04:11:40;;;;;;;12.38;2.63;;;19.70;99.90;;;;;;5072868;28;20066;-43
2024/03/09 04:14:06;;;;;;;13.23;3.53;;;19.80;99.90;;;;;;5072821;28;20429;-43
2024/03/09 04:16:33;;;;;;;8.25;1.98;;;19.80;99.90;;;;;;5055105;28;20108;-43
2024/03/09 04:19:02;;;;;;;11.05;2.55;;;19.80;99.90;;;;;;5073027;28;20062;-43
2024/03/09 04:21:28;;;;;;;7.25;2.70;;;19.80;99.90;;;;;;5054745;28;20028;-43
2024/03/09 04:23:54;;;;;;;9.50;2.67;;;19.70;99.90;;;;;;5054872;28;20094;-43
2024/03/09 04:26:19;;;;;;;9.05;1.98;;;19.70;99.90;;;;;;5072616;28;20091;-43
2024/03/09 04:28:45;;;;;;;11.35;3.28;;;19.70;99.90;;;;;;5072614;28;20111;-43
2024/03/09 04:31:11;;;;;;;8.98;2.45;;;19.70;99.90;;;;;;5072676;28;20526;-44
2024/03/09 04:33:37;;;;;;;9.82;2.22;;;19.70;99.90;;;;;;5072376;28;20032;-44
2024/03/09 04:36:06;;;;;;;7.00;2.10;;;19.70;99.90;;;;;;5072818;28;20416;-44
2024/03/09 04:38:33;;;;;;;10.50;2.63;;;19.70;99.90;;;;;;5072645;28;20024;-43
2024/03/09 04:40:59;;;;;;;12.73;2.20;;;19.70;99.90;;;;;;5054356;28;20365;-44
2024/03/09 04:43:27;;;;;;;7.47;2.45;;;19.60;99.90;;;;;;5072382;28;20089;-44
2024/03/09 04:45:55;;;;;;;7.70;1.98;;;19.70;99.90;;;;;;5038325;28;20016;-44
2024/03/09 04:48:22;;;;;;;6.53;2.05;;;19.60;99.90;;;;;;5072447;28;20103;-44
2024/03/09 04:50:50;;;;;;;7.43;2.10;;;19.60;99.90;;;;;;5072275;28;20463;-46
2024/03/09 04:53:16;;;;;;;6.00;2.00;;;19.60;99.90;;;;;;5040690;28;20439;-44
2024/03/09 04:55:52;;;;;;;7.88;2.25;;;19.60;99.90;;;;;;5034442;28;20025;-42
2024/03/09 04:58:19;;;;;;;9.77;2.13;;;19.60;99.90;;;;;;5052334;28;20079;-43
2024/03/09 05:00:45;;;;;;;8.57;2.65;;;19.60;99.90;;;;;;5052420;28;20017;-43
2024/03/09 05:03:14;;;;;;;6.80;2.10;;;19.60;99.90;;;;;;5051077;28;20112;-42
2024/03/09 05:05:40;;;;;;;7.20;2.00;;;19.60;99.90;;;;;;5052210;28;20104;-43
2024/03/09 05:08:07;;;;;;;5.15;2.03;;;19.60;99.90;;;;;;5052079;28;20025;-43
2024/03/09 05:10:33;;;;;;;8.05;2.22;;;19.60;99.90;;;;;;5034573;28;20025;-43
2024/03/09 05:13:00;;;;;;;6.78;1.73;;;19.60;99.90;;;;;;5052041;28;20515;-43
2024/03/09 05:15:29;;;;;;;9.35;2.05;;;19.60;99.90;;;;;;5052052;28;21006;-44
2024/03/09 05:17:56;;;;;;;8.95;2.15;;;19.60;99.90;;;;;;5052200;28;20108;-43
2024/03/09 05:20:23;;;;;;;9.73;2.17;;;19.60;99.90;;;;;;5034143;28;20029;-45
2024/03/09 05:22:54;;;;;;;9.10;1.88;;;19.60;99.90;;;;;;5051961;28;20037;-43
2024/03/09 05:25:23;;;;;;;9.73;2.28;;;19.60;99.90;;;;;;5034144;28;20021;-44
2024/03/09 05:27:51;;;;;;;6.07;2.40;;;19.60;99.90;;;;;;5051754;28;20123;-43
2024/03/09 05:30:19;;;;;;;4.32;2.13;;;19.60;99.90;;;;;;5051957;28;20096;-44
2024/03/09 05:32:57;;;;;;;11.02;2.33;;;19.50;99.90;;;;;;5051986;28;20040;-44
2024/03/09 05:35:28;;;;;;;11.32;3.20;;;19.50;99.90;;;;;;5051858;28;20540;-45
2024/03/09 05:37:54;;;;;;;8.25;2.42;;;19.50;99.90;;;;;;5051959;28;20033;-44
2024/03/09 05:40:21;;;;;;;8.13;2.53;;;19.50;99.90;;;;;;5052045;28;20029;-44
2024/03/09 05:42:48;;;;;;;5.43;2.50;;;19.50;99.90;;;;;;5051709;28;20065;-44
2024/03/09 05:45:20;;;;;;;7.60;2.78;;;19.50;99.90;;;;;;5053005;28;20107;-44
2024/03/09 05:47:50;;;;;;;3.97;2.90;;;19.50;99.90;;;;;;5055760;28;20060;-45
2024/03/09 05:50:17;;;;;;;6.78;2.83;;;19.50;99.90;;;;;;5055422;28;20032;-44
2024/03/09 05:52:47;;;;;;;9.43;2.67;;;19.50;99.90;;;;;;5037958;28;20500;-44
2024/03/09 05:55:16;;;;;;;9.80;3.85;;;19.50;99.90;;;;;;5055513;28;20074;-44
2024/03/09 05:57:43;;;;;;;10.43;2.85;;;19.50;99.90;;;;;;5055469;28;20021;-44
2024/03/09 06:00:15;;;;;;;7.95;3.20;;;19.50;99.90;;;;;;5055524;28;20024;-44
2024/03/09 06:02:42;;;;;;;7.82;3.17;;;19.50;99.90;;;;;;5055004;28;20098;-44
2024/03/09 06:05:09;;;;;;;8.35;3.40;;;19.50;99.90;;;;;;5055425;28;20020;-45
2024/03/09 06:07:42;;;;;;;8.75;3.50;;;19.50;99.90;;;;;;5055381;28;20029;-45
2024/03/09 06:10:13;;;;;;;7.40;3.22;;;19.50;99.90;;;;;;5037516;28;20027;-44
2024/03/09 06:12:42;;;;;;;10.77;3.28;;;19.40;99.90;;;;;;5055107;28;20021;-44
2024/03/09 06:15:08;;;;;;;12.25;2.92;;;19.50;99.90;;;;;;5055221;28;20024;-45
2024/03/09 06:17:34;;;;;;;8.00;3.22;;;19.40;99.90;;;;;;5055326;28;20028;-45
2024/03/09 06:20:02;;;;;;;8.10;4.15;;;19.40;99.90;;;;;;5055182;28;20396;-45
2024/03/09 06:22:33;;;;;;;8.48;2.97;;;19.40;99.90;;;;;;5054914;28;20029;-44
2024/03/09 06:24:59;;;;;;;7.97;2.95;;;19.40;99.90;;;;;;5054934;28;20039;-44
2024/03/09 06:27:26;;;;;;;7.65;3.45;;;19.40;99.90;;;;;;5037010;28;20029;-45
2024/03/09 06:29:53;;;;;;;9.30;2.60;;;19.40;99.90;;;;;;5054981;28;20021;-44
2024/03/09 06:32:19;;;;;;;6.55;2.75;;;19.40;99.90;;;;;;5054997;28;20043;-44
2024/03/09 06:34:45;;;;;;;8.73;2.67;;;19.40;99.90;;;;;;5036826;28;20477;-44
2024/03/09 06:37:11;;;;;;;7.15;3.17;;;19.40;99.90;;;;;;5054806;28;20096;-44
2024/03/09 06:39:38;;;;;;;6.55;2.60;;;19.40;99.90;;;;;;5055324;28;20029;-44
2024/03/09 06:42:09;;;;;;;7.75;2.88;;;19.40;99.90;;;;;;5054534;28;20387;-44
2024/03/09 06:44:36;;;;;;;8.45;3.15;;;19.40;99.90;;;;;;5054559;28;20032;-44
2024/03/09 06:47:06;;;;;;;7.20;2.50;;;19.40;99.90;;;;;;5054545;28;20029;-44
2024/03/09 06:49:35;;;;;;;5.28;2.72;;;19.40;99.90;;;;;;5037424;28;20021;-44
2024/03/09 06:52:04;;;;;;;7.28;3.33;;;19.30;99.90;;;;;;5054450;28;20028;-44
2024/03/09 06:54:31;;;;;;;11.20;3.20;;;19.40;99.90;;;;;;5054305;28;20021;-44
2024/03/09 06:56:57;;;;;;;6.90;2.58;;;19.30;99.90;;;;;;5053959;28;20032;-44
2024/03/09 06:59:23;;;;;;;8.82;3.22;;;19.30;99.90;;;;;;5054276;28;20020;-44
2024/03/09 07:01:57;;;;;;;6.03;2.53;;;19.30;99.90;;;;;;5054199;28;20045;-43
2024/03/09 07:04:24;;;;;;;6.13;2.55;;;19.30;99.90;;;;;;5036456;28;20450;-44
2024/03/09 07:06:50;;;;;;;9.35;2.83;;;19.30;99.90;;;;;;5054252;28;20040;-43
2024/03/09 07:09:17;;;;;;;6.65;2.25;;;19.30;99.90;;;;;;5054030;28;20060;-45
2024/03/09 07:11:42;;;;;;;8.38;3.15;;;19.30;99.90;;;;;;5054157;28;20017;-44
2024/03/09 07:14:08;;;;;;;6.07;2.50;;;19.30;99.90;;;;;;5054230;28;20021;-44
2024/03/09 07:16:34;;;;;;;6.43;2.75;;;19.30;99.90;;;;;;5053917;28;20075;-45
2024/03/09 07:19:01;;;;;;;5.13;2.60;;;19.30;99.90;;;;;;5036224;28;20025;-44
2024/03/09 07:21:29;;;;;;;6.13;2.17;;;19.30;99.90;;;;;;5053951;28;20028;-44
2024/03/09 07:23:54;;;;;;;7.78;2.28;;;19.30;99.90;;;;;;5053738;28;20282;-45
2024/03/09 07:26:20;;;;;;;7.00;2.13;;;19.30;99.90;;;;;;5035917;28;20028;-45
2024/03/09 07:28:46;;;;;;;7.32;1.92;;;19.30;99.90;;;;;;5053576;28;20389;-44
2024/03/09 07:31:12;;;;;;;8.40;2.20;;;19.30;99.90;;;;;;5053996;28;20025;-44
2024/03/09 07:33:38;;;;;;;7.63;2.63;;;19.30;99.90;;;;;;5036108;28;20091;-44
2024/03/09 07:36:04;;;;;;;4.22;1.90;;;19.30;99.90;;;;;;5053540;28;20032;-45
2024/03/09 07:38:30;;;;;;;6.38;2.10;;;19.30;99.90;;;;;;5053466;28;20029;-45
2024/03/09 07:40:56;;;;;;;5.13;1.90;;;19.30;99.90;;;;;;5035468;28;20029;-45
2024/03/09 07:43:22;;;;;;;8.32;2.42;;;19.30;99.90;;;;;;5053434;28;20104;-45
2024/03/09 07:45:48;;;;;;;4.35;1.70;;;19.20;99.90;;;;;;5053298;28;20087;-45
2024/03/09 07:48:16;;;;;;;8.38;2.20;;;19.20;99.90;;;;;;5053329;28;20454;-45
2024/03/09 07:50:48;;;;;;;9.13;3.42;;;19.30;99.90;;;;;;5053413;28;20021;-45
2024/03/09 07:53:14;;;;;;;4.53;2.17;;;19.20;99.90;;;;;;5053140;28;20031;-45
2024/03/09 07:55:40;;;;;;;6.78;2.13;;;19.30;99.90;;;;;;5035504;28;20043;-44
2024/03/09 07:58:06;;;;;;;4.05;1.75;;;19.20;99.90;;;;;;5035340;28;20492;-44
2024/03/09 08:00:35;;;;;;;5.07;2.00;;;19.20;99.90;;;;;;5034944;28;20025;-44
2024/03/09 08:03:02;;;;;;;6.40;2.08;;;19.30;99.90;;;;;;5035069;28;20036;-44
2024/03/09 08:05:28;;;;;;;5.90;2.20;;;19.20;99.90;;;;;;5052973;28;20051;-44
2024/03/09 08:07:55;;;;;;;7.13;2.00;;;19.20;99.90;;;;;;5052374;28;20378;-44
2024/03/09 08:10:25;;;;;;;5.15;2.38;;;19.20;99.90;;;;;;5035026;28;20039;-44
2024/03/09 08:12:56;;;;;;;5.63;2.13;;;19.20;99.90;;;;;;5052817;28;20032;-45
2024/03/09 08:15:22;;;;;;;3.40;2.17;;;19.20;99.90;;;;;;5055314;28;20112;-43
2024/03/09 08:17:48;;;;;;;5.22;2.10;;;19.20;99.90;;;;;;5061844;28;20025;-45
2024/03/09 08:20:21;;;;;;;6.25;1.80;;;19.20;99.90;;;;;;5052868;28;20024;-45
2024/03/09 08:22:47;;;;;;;8.00;2.17;;;19.20;99.90;;;;;;5052624;28;20109;-42
2024/03/09 08:25:17;;;;;;;5.45;1.83;;;19.20;99.90;;;;;;5052751;28;20032;-44
2024/03/09 08:27:44;;;;;;;6.18;1.80;;;19.20;99.90;;;;;;5052783;28;20021;-44
2024/03/09 08:30:15;;;;;;;3.42;1.70;;;19.20;99.90;;;;;;5069212;28;20028;-44
2024/03/09 08:32:44;;;;;;;5.03;1.75;;;19.20;99.90;;;;;;5071591;28;20021;-43
2024/03/09 08:35:20;;;;;;;8.18;2.28;;;19.30;99.90;;;;;;5072721;28;20479;-44
2024/03/09 08:37:48;;;;;;;6.00;1.95;;;19.30;99.90;;;;;;5054572;28;20035;-44
2024/03/09 08:40:18;;;;;;;5.82;2.13;;;19.30;99.90;;;;;;5072763;28;20103;-43
2024/03/09 08:42:58;;;;;;;5.05;2.30;;;19.30;99.90;;;;;;5072380;28;20042;-44
2024/03/09 08:45:26;;;;;;;4.30;1.88;;;19.30;99.90;;;;;;5054418;28;20115;-44
2024/03/09 08:47:53;;;;;;;8.45;2.72;;;19.30;99.90;;;;;;5072409;28;20442;-44
2024/03/09 08:50:21;;;;;;;5.70;2.13;;;19.30;99.90;;;;;;5054612;28;20031;-45
2024/03/09 08:52:47;;;;;;;3.88;2.00;;;19.30;99.90;;;;;;5072373;28;20435;-44
2024/03/09 08:55:14;;;;;;;7.47;2.58;;;19.30;99.90;;;;;;5054535;28;20025;-46
2024/03/09 08:57:41;;;;;;;5.20;2.05;;;19.30;99.90;;;;;;5072218;28;20023;-44
2024/03/09 09:00:09;;;;;;;5.93;2.42;;;19.30;99.90;;;;;;5072189;28;20029;-44
2024/03/09 09:02:37;;;;;;;7.15;2.58;;;19.30;99.90;;;;;;5072004;28;20119;-45
2024/03/09 09:05:12;;;;;;;6.85;2.25;;;19.30;99.90;;;;;;5072221;28;20042;-46
2024/03/09 09:07:40;;;;;;;7.85;2.33;;;19.30;99.90;;;;;;5072318;28;20036;-44
2024/03/09 09:10:11;;;;;;;4.97;2.33;;;19.30;99.90;;;;;;5072045;28;20452;-44
2024/03/09 09:12:38;;;;;;;8.73;2.40;;;19.30;99.90;;;;;;5072144;28;20035;-44
2024/03/09 09:15:05;;;;;;;4.50;2.95;;;19.40;99.90;;;;;;5072019;28;20500;-45
2024/03/09 09:17:33;;;;;;;7.50;3.67;;;19.40;99.90;;;;;;5071980;28;20024;-45
2024/03/09 09:19:59;;;;;;;7.25;2.85;;;19.40;99.90;;;;;;5074670;28;20029;-43
2024/03/09 09:22:25;;;;;;;6.70;2.50;;;19.40;99.90;;;;;;5076117;28;20028;-44
2024/03/09 09:24:52;;;;;;;5.03;2.20;;;19.40;99.90;;;;;;5076052;28;20033;-44
2024/03/09 09:27:18;;;;;;;4.60;2.72;;;19.40;99.90;;;;;;5058228;28;20032;-44
2024/03/09 09:29:45;;;;;;;6.28;2.42;;;19.40;99.90;;;;;;5058273;28;20024;-44
2024/03/09 09:32:10;;;;;;;6.80;2.13;;;19.40;99.90;;;;;;5076100;28;20025;-43
2024/03/09 09:34:36;;;;;;;4.03;2.30;;;19.50;99.90;;;;;;5075809;28;20498;-44
2024/03/09 09:37:02;;;;;;;5.65;2.63;;;19.40;99.90;;;;;;5075875;28;20020;-44
2024/03/09 09:39:34;;;;;;;4.55;2.38;;;19.40;99.90;;;;;;5075769;28;20434;-45
2024/03/09 09:42:00;;;;;;;4.00;2.33;;;19.50;99.90;;;;;;5058720;28;20074;-45
2024/03/09 09:44:27;;;;;;;6.95;2.80;;;19.40;99.90;;;;;;5075697;28;20520;-44
2024/03/09 09:46:57;;;;;;;4.13;2.15;;;19.50;99.90;;;;;;5075655;28;20028;-44
2024/03/09 09:49:24;;;;;;;7.57;2.70;;;19.50;99.90;;;;;;5057660;28;20036;-45
2024/03/09 09:51:56;;;;;;;6.05;2.78;;;19.50;99.90;;;;;;5075478;28;20473;-44
2024/03/09 09:54:32;;;;;;;7.47;3.10;;;19.50;99.90;;;;;;5058347;28;20467;-44
2024/03/09 09:56:58;;;;;;;5.13;2.92;;;19.40;99.90;;;;;;5075449;28;20021;-44
2024/03/09 09:59:24;;;;;;;5.65;2.83;;;19.40;99.90;;;;;;5075364;28;20127;-45
2024/03/09 10:01:50;;;;;;;4.95;2.30;;;19.50;99.90;;;;;;5075453;28;20515;-44
2024/03/09 10:04:16;;;;;;;4.63;2.85;;;19.50;99.90;;;;;;5075275;28;20068;-44
2024/03/09 10:06:43;;;;;;;5.55;2.72;;;19.50;99.90;;;;;;5075180;28;20484;-45
2024/03/09 10:09:09;;;;;;;7.55;2.85;;;19.50;99.90;;;;;;5075214;28;20032;-45
2024/03/09 10:11:35;;;;;;;4.25;2.33;;;19.50;99.90;;;;;;5075758;28;20020;-45
2024/03/09 10:14:01;;;;;;;6.50;3.10;;;19.50;99.90;;;;;;5075194;28;20060;-45
2024/03/09 10:16:29;;;;;;;5.90;2.63;;;19.50;99.90;;;;;;5074937;28;20021;-45
2024/03/09 10:18:56;;;;;;;4.97;2.58;;;19.50;99.90;;;;;;5056917;28;20035;-45
2024/03/09 10:21:40;;;;;;;5.95;2.50;;;19.50;99.90;;;;;;5075053;28;20503;-44
2024/03/09 10:24:07;;;;;;;5.95;3.05;;;19.50;99.90;;;;;;5074785;28;20534;-45
2024/03/09 10:26:34;;;;;;;5.63;3.20;;;19.50;99.90;;;;;;5074895;28;20104;-43
2024/03/09 10:29:03;;;;;;;6.63;2.70;;;19.50;99.90;;;;;;5057106;28;20048;-44
2024/03/09 10:31:32;;;;;;;6.28;3.20;;;19.50;99.90;;;;;;5073941;28;20025;-45
2024/03/09 10:33:58;;;;;;;9.75;2.95;;;19.50;99.90;;;;;;5074888;28;20376;-44
2024/03/09 10:36:26;;;;;;;6.00;3.00;;;19.50;99.90;;;;;;5074758;28;20034;-44
2024/03/09 10:38:57;;;;;;;6.70;3.03;;;19.50;99.90;;;;;;5074733;28;20024;-44
2024/03/09 10:41:25;;;;;;;6.75;3.35;;;19.50;99.90;;;;;;5056687;28;20056;-44
2024/03/09 10:43:52;;;;;;;8.32;3.38;;;19.50;99.90;;;;;;5074629;28;20428;-45
2024/03/09 10:46:23;;;;;;;6.45;3.83;;;19.50;99.90;;;;;;5074736;28;20016;-44
2024/03/09 10:48:53;;;;;;;6.18;3.30;;;19.50;99.90;;;;;;5074804;28;20028;-44
2024/03/09 10:51:50;;;;;;;7.68;2.88;;;19.50;99.90;;;;;;5074613;28;20423;-45
2024/03/09 10:54:43;;;;;;;7.50;3.28;;;19.50;99.90;;;;;;5064604;28;20041;-45
2024/03/09 10:57:13;;;;;;;4.32;2.75;;;19.50;99.90;;;;;;5074233;28;20036;-44
2024/03/09 10:59:42;;;;;;;6.13;3.33;;;19.50;99.90;;;;;;5056961;28;20025;-44
2024/03/09 11:02:10;;;;;;;5.70;2.88;;;19.50;99.90;;;;;;5074052;28;20044;-45
2024/03/09 11:04:36;;;;;;;;;;;19.50;99.90;;;;;;5056952;28;20028;-45
2024/03/09 11:07:02;;;;;;;9.90;4.38;;;19.60;99.90;;;;;;5074240;28;19911;-45
2024/03/09 11:09:29;;;;;;;8.50;3.58;;;19.60;99.90;;;;;;5074146;28;20024;-45
2024/03/09 11:12:00;;;;;;;5.03;3.00;;;19.60;99.90;;;;;;5056125;28;20031;-44
2024/03/09 11:14:26;;;;;;;8.70;3.25;;;19.60;99.90;;;;;;5073887;28;20037;-45
2024/03/09 11:16:53;;;;;;;8.20;3.28;;;19.60;99.90;;;;;;5074239;28;20099;-44
2024/03/09 11:19:20;;;;;;;7.03;3.50;;;19.50;99.90;;;;;;5056041;28;20048;-45
2024/03/09 11:21:48;;;;;;;6.47;3.55;;;19.60;99.90;;;;;;5073988;28;20372;-45
2024/03/09 11:24:15;;;;;;;7.13;3.47;;;19.60;99.90;;;;;;5073713;28;20152;-44
2024/03/09 11:26:56;;;;;;;5.25;3.35;;;19.60;99.90;;;;;;5073699;28;20025;-45
2024/03/09 11:29:23;;;;;;;5.55;3.20;;;19.60;99.90;;;;;;5074056;28;20774;-45
2024/03/09 11:31:54;;;;;;;5.47;3.40;;;19.60;99.90;;;;;;5073556;28;20020;-45
2024/03/09 11:34:23;;;;;;;6.25;3.40;;;19.60;99.90;;;;;;5073625;28;20423;-44
2024/03/09 11:36:51;;;;;;;4.82;3.20;;;19.60;99.90;;;;;;5073652;28;20099;-45
2024/03/09 11:39:31;;;;;;;4.65;3.60;;;19.60;99.90;;;;;;5073396;28;20035;-45
2024/03/09 11:42:17;;;;;;;4.40;3.03;;;19.60;99.90;;;;;;5073022;28;20021;-44
2024/03/09 11:44:43;;;;;;;7.35;3.70;;;19.50;99.90;;;;;;5072811;28;20064;-44
2024/03/09 11:47:09;;;;;;;7.40;3.85;;;19.50;99.90;;;;;;5073277;28;20016;-45
2024/03/09 11:49:39;;;;;;;4.68;3.58;;;19.60;99.90;;;;;;5073308;28;20056;-45
2024/03/09 11:52:07;;;;;;;5.80;3.83;;;19.50;99.90;;;;;;5073332;28;20024;-44
2024/03/09 11:54:35;;;;;;;7.40;3.83;;;19.50;99.90;;;;;;5073252;28;20105;-44
2024/03/09 11:57:01;;;;;;;5.55;3.10;;;19.60;99.90;;;;;;5055523;28;20025;-45
2024/03/09 11:59:27;;;;;;;4.85;3.60;;;19.60;99.90;;;;;;5073145;28;20468;-45
2024/03/09 12:02:02;;;;;;;4.78;3.30;;;19.60;99.90;;;;;;5073106;28;20056;-45
2024/03/09 12:04:29;;;;;;;7.50;3.75;;;19.60;99.90;;;;;;5072858;28;20036;-45
2024/03/09 12:06:55;;;;;;;6.70;3.15;;;19.60;99.90;;;;;;5073352;28;20017;-43
2024/03/09 12:09:21;;;;;;;7.13;3.63;;;19.60;99.90;;;;;;5072781;28;20534;-44
2024/03/09 12:11:47;;;;;;;6.07;3.40;;;19.60;99.90;;;;;;5072849;28;20036;-44
2024/03/09 12:14:14;;;;;;;7.82;3.17;;;19.60;99.90;;;;;;5054867;28;20025;-45
2024/03/09 12:16:41;;;;;;;6.88;3.30;;;19.60;99.90;;;;;;5072886;28;20024;-47
2024/03/09 12:19:08;;;;;;;5.90;3.22;;;19.60;99.90;;;;;;5072648;28;20055;-45
2024/03/09 12:21:36;;;;;;;5.43;3.42;;;19.60;99.90;;;;;;5072645;28;20036;-44
2024/03/09 12:24:02;;;;;;;6.03;3.17;;;19.60;99.90;;;;;;5072470;28;20024;-45
2024/03/09 12:26:28;;;;;;;7.30;3.45;;;19.60;99.90;;;;;;5072501;28;20017;-45
2024/03/09 12:28:58;;;;;;;5.05;2.72;;;19.60;99.90;;;;;;5072794;28;20029;-44
2024/03/09 12:31:25;;;;;;;6.63;3.90;;;19.60;99.90;;;;;;5072735;28;20475;-44
2024/03/09 12:33:54;;;;;;;6.93;3.53;;;19.60;99.90;;;;;;5054439;28;20043;-45
2024/03/09 12:36:21;;;;;;;7.38;3.95;;;19.60;99.90;;;;;;5072328;28;20027;-44
2024/03/09 12:38:50;;;;;;;5.65;3.20;;;19.60;99.90;;;;;;5072369;28;20031;-44
2024/03/09 12:41:30;;;;;;;7.32;3.90;;;19.60;99.90;;;;;;5072461;28;20021;-44
2024/03/09 12:44:06;;;;;;;5.90;3.42;;;19.60;99.90;;;;;;5054974;28;20433;-44
2024/03/09 12:46:33;;;;;;;4.82;3.42;;;19.60;99.90;;;;;;5072151;28;20086;-44
2024/03/09 12:49:08;;;;;;;5.90;3.53;;;19.60;99.90;;;;;;5072101;28;20052;-44
2024/03/09 12:51:41;;;;;;;6.32;3.40;;;19.60;99.90;;;;;;5071951;28;20032;-44